Time;durP1;ratioP1;P1;durP2;ratioP2;P2;SDS_P1;SDS_P2;PMS_P1;PMS_P2;Temp;Humidity;BMP_temperature;BMP_pressure;BME280_temperature;BME280_humidity;BME280_pressure;Samples;Min_cycle;Max_cycle;Signal;HPM_P1;HPM_P2
2023/10/31 00:02:25;;;;;;;17.58;10.05;;;9.10;99.90;;;;;;4991751;28;20054;-61
2023/10/31 00:04:53;;;;;;;16.50;10.57;;;9.10;99.90;;;;;;4991418;28;20042;-61
2023/10/31 00:07:21;;;;;;;20.92;10.55;;;9.10;99.90;;;;;;4990152;28;20050;-61
2023/10/31 00:09:48;;;;;;;20.70;10.05;;;9.10;99.90;;;;;;4982107;28;20062;-60
2023/10/31 00:12:16;;;;;;;16.70;9.32;;;9.00;99.90;;;;;;4971946;28;20050;-58
2023/10/31 00:14:44;;;;;;;19.13;10.60;;;9.00;99.90;;;;;;4990433;28;20058;-60
2023/10/31 00:17:11;;;;;;;18.98;9.73;;;9.00;99.90;;;;;;4990191;28;20043;-58
2023/10/31 00:19:39;;;;;;;17.40;10.50;;;9.00;99.90;;;;;;4990987;28;20046;-60
2023/10/31 00:22:07;;;;;;;18.15;10.05;;;9.00;99.90;;;;;;4990171;28;20050;-61
2023/10/31 00:24:34;;;;;;;19.33;9.40;;;9.00;99.90;;;;;;4990197;28;20058;-59
2023/10/31 00:27:02;;;;;;;19.20;10.65;;;9.00;99.90;;;;;;4978261;28;20047;-60
2023/10/31 00:29:30;;;;;;;16.13;8.73;;;9.00;99.90;;;;;;4986031;28;20046;-61
2023/10/31 00:31:58;;;;;;;22.83;10.88;;;9.00;99.90;;;;;;4971889;28;20058;-61
2023/10/31 00:34:25;;;;;;;19.83;9.77;;;9.00;99.90;;;;;;4987466;28;20042;-61
2023/10/31 00:36:53;;;;;;;20.08;10.55;;;9.10;99.90;;;;;;4991013;28;20061;-61
2023/10/31 00:39:21;;;;;;;18.92;11.13;;;9.10;99.90;;;;;;4981552;28;20054;-59
2023/10/31 00:41:49;;;;;;;20.13;10.98;;;9.10;99.90;;;;;;4972036;28;20049;-57
2023/10/31 00:44:17;;;;;;;20.73;10.10;;;9.10;99.90;;;;;;4986410;28;20050;-58
2023/10/31 00:46:45;;;;;;;26.83;11.27;;;9.10;99.90;;;;;;4990999;28;20046;-58
2023/10/31 00:49:12;;;;;;;21.08;11.38;;;9.10;99.90;;;;;;4973242;28;20073;-58
2023/10/31 00:51:40;;;;;;;23.20;10.65;;;9.10;99.90;;;;;;4990439;28;20066;-59
2023/10/31 00:54:08;;;;;;;20.48;10.82;;;9.10;99.90;;;;;;4989847;28;20047;-58
2023/10/31 00:56:36;;;;;;;21.48;11.00;;;9.10;99.90;;;;;;4982789;28;20062;-58
2023/10/31 00:59:03;;;;;;;20.92;11.30;;;9.10;99.90;;;;;;4981954;28;20065;-57
2023/10/31 01:01:31;;;;;;;20.63;11.32;;;9.10;99.90;;;;;;4958534;28;20046;-59
2023/10/31 01:03:59;;;;;;;22.90;10.77;;;9.10;99.90;;;;;;4980585;28;20043;-60
2023/10/31 01:06:27;;;;;;;26.48;12.10;;;9.20;99.90;;;;;;4973063;28;20046;-60
2023/10/31 01:08:55;;;;;;;22.58;11.23;;;9.20;99.90;;;;;;4980514;28;20053;-57
2023/10/31 01:11:22;;;;;;;23.42;11.95;;;9.20;99.90;;;;;;4989459;28;20050;-57
2023/10/31 01:13:50;;;;;;;21.83;11.23;;;9.20;99.90;;;;;;4990239;28;20042;-57
2023/10/31 01:16:18;;;;;;;27.50;12.02;;;9.20;99.90;;;;;;4989512;28;20046;-57
2023/10/31 01:18:47;;;;;;;23.70;11.20;;;9.20;99.90;;;;;;4988464;28;20050;-58
2023/10/31 01:21:15;;;;;;;22.25;10.68;;;9.20;99.90;;;;;;4989155;28;20505;-57
2023/10/31 01:23:42;;;;;;;26.20;12.10;;;9.20;99.90;;;;;;4989752;28;20458;-57
2023/10/31 01:26:10;;;;;;;25.38;11.95;;;9.20;99.90;;;;;;4987233;28;20047;-57
2023/10/31 01:28:38;;;;;;;22.60;11.48;;;9.20;99.90;;;;;;4969254;28;20050;-57
2023/10/31 01:31:06;;;;;;;22.60;11.65;;;9.20;99.90;;;;;;4983956;28;20066;-56
2023/10/31 01:33:33;;;;;;;21.67;11.70;;;9.20;99.90;;;;;;4989565;28;20482;-56
2023/10/31 01:36:01;;;;;;;23.70;11.73;;;9.20;99.90;;;;;;4989901;28;20050;-57
2023/10/31 01:38:29;;;;;;;23.10;11.38;;;9.20;99.90;;;;;;4989525;28;20050;-57
2023/10/31 01:40:57;;;;;;;22.38;11.18;;;9.20;99.90;;;;;;4968813;28;20053;-57
2023/10/31 01:43:37;;;;;;;21.42;11.68;;;9.20;99.90;;;;;;4979326;28;20482;-57
2023/10/31 01:46:05;;;;;;;22.52;12.25;;;9.20;99.90;;;;;;4988638;28;20055;-56
2023/10/31 01:48:34;;;;;;;22.80;11.55;;;9.10;99.90;;;;;;4982131;28;20046;-58
2023/10/31 01:51:04;;;;;;;24.27;12.13;;;9.10;99.90;;;;;;4989816;28;20054;-58
2023/10/31 01:53:33;;;;;;;20.38;11.02;;;9.20;99.90;;;;;;4989340;28;20054;-57
2023/10/31 01:56:03;;;;;;;23.05;11.32;;;9.20;99.90;;;;;;4969476;28;20055;-57
2023/10/31 01:58:34;;;;;;;21.63;10.82;;;9.20;99.90;;;;;;4987416;28;20572;-57
2023/10/31 02:01:03;;;;;;;24.90;12.63;;;9.20;99.90;;;;;;4988391;28;20050;-58
2023/10/31 02:03:31;;;;;;;22.40;11.27;;;9.20;99.90;;;;;;4989374;28;20482;-57
2023/10/31 02:05:59;;;;;;;24.35;11.13;;;9.20;99.90;;;;;;4985550;28;20054;-58
2023/10/31 02:08:27;;;;;;;23.30;10.60;;;9.20;99.90;;;;;;4984083;28;20051;-59
2023/10/31 02:10:54;;;;;;;19.52;10.25;;;9.20;99.90;;;;;;4992348;28;20055;-59
2023/10/31 02:13:22;;;;;;;23.65;10.90;;;9.10;99.90;;;;;;4977383;28;20050;-58
2023/10/31 02:15:50;;;;;;;21.25;10.82;;;9.20;99.90;;;;;;4989276;28;20061;-58
2023/10/31 02:18:18;;;;;;;16.60;8.70;;;9.10;99.90;;;;;;4984831;28;20415;-58
2023/10/31 02:20:47;;;;;;;25.23;10.18;;;9.20;99.90;;;;;;4969462;28;20395;-58
2023/10/31 02:23:16;;;;;;;21.27;10.25;;;9.10;99.90;;;;;;4976030;28;20049;-58
2023/10/31 02:25:43;;;;;;;19.38;10.07;;;9.10;99.90;;;;;;4984943;28;20043;-58
2023/10/31 02:28:11;;;;;;;21.38;9.75;;;9.10;99.90;;;;;;4982290;28;20050;-58
2023/10/31 02:30:41;;;;;;;17.80;9.57;;;9.10;99.90;;;;;;4984551;28;20069;-59
2023/10/31 02:33:08;;;;;;;21.77;10.95;;;9.10;99.90;;;;;;4971658;28;20043;-59
2023/10/31 02:35:36;;;;;;;21.85;10.02;;;9.10;99.90;;;;;;4979623;28;20509;-59
2023/10/31 02:38:04;;;;;;;20.48;9.60;;;9.10;99.90;;;;;;4990464;28;20054;-59
2023/10/31 02:40:31;;;;;;;19.13;9.65;;;9.10;99.90;;;;;;4989598;28;20050;-59
2023/10/31 02:42:59;;;;;;;22.00;10.38;;;9.10;99.90;;;;;;4974923;28;20494;-59
2023/10/31 02:45:26;;;;;;;22.23;10.07;;;9.10;99.90;;;;;;4989559;28;20559;-58
2023/10/31 02:47:55;;;;;;;18.00;8.52;;;9.10;99.90;;;;;;4974917;28;20050;-58
2023/10/31 02:50:22;;;;;;;19.42;8.77;;;9.10;99.90;;;;;;4990645;28;20472;-59
2023/10/31 02:52:50;;;;;;;18.70;8.80;;;9.10;99.90;;;;;;4992012;28;20053;-59
2023/10/31 02:55:18;;;;;;;18.77;7.75;;;9.10;99.90;;;;;;4986228;28;20046;-58
2023/10/31 02:57:46;;;;;;;14.68;7.85;;;9.10;99.90;;;;;;4989907;28;20042;-57
2023/10/31 03:00:14;;;;;;;17.60;8.00;;;9.10;99.90;;;;;;4990613;28;20050;-57
2023/10/31 03:02:42;;;;;;;16.65;8.23;;;9.10;99.90;;;;;;4992065;28;20043;-57
2023/10/31 03:05:10;;;;;;;15.18;7.35;;;9.10;99.90;;;;;;4986536;28;20058;-57
2023/10/31 03:07:38;;;;;;;14.80;7.65;;;9.10;99.90;;;;;;4972396;28;20043;-58
2023/10/31 03:10:06;;;;;;;17.45;7.78;;;9.10;99.90;;;;;;4975866;28;20043;-57
2023/10/31 03:12:34;;;;;;;18.48;8.55;;;9.10;99.90;;;;;;4987856;28;20406;-57
2023/10/31 03:15:04;;;;;;;15.95;7.65;;;9.10;99.90;;;;;;4992019;28;20046;-57
2023/10/31 03:17:32;;;;;;;14.35;7.65;;;9.10;99.90;;;;;;4991873;28;20070;-57
2023/10/31 03:19:59;;;;;;;14.50;6.68;;;9.10;99.90;;;;;;4991773;28;20061;-58
2023/10/31 03:22:27;;;;;;;14.55;7.00;;;9.10;99.90;;;;;;4991888;28;20047;-57
2023/10/31 03:24:55;;;;;;;14.80;7.15;;;9.10;99.90;;;;;;4975846;28;20051;-57
2023/10/31 03:27:23;;;;;;;16.23;7.38;;;9.10;99.90;;;;;;4992016;28;20062;-57
2023/10/31 03:29:50;;;;;;;14.00;7.68;;;9.10;99.90;;;;;;4990626;28;20061;-58
2023/10/31 03:32:18;;;;;;;13.13;6.60;;;9.10;99.90;;;;;;4990079;28;20046;-58
2023/10/31 03:34:46;;;;;;;10.60;6.70;;;9.20;99.90;;;;;;4990157;28;20042;-58
2023/10/31 03:37:13;;;;;;;11.15;6.05;;;9.20;99.90;;;;;;4985358;28;20046;-57
2023/10/31 03:39:41;;;;;;;13.27;6.60;;;9.20;99.90;;;;;;4987285;28;20050;-58
2023/10/31 03:42:09;;;;;;;14.80;6.43;;;9.20;99.90;;;;;;4991833;28;20046;-58
2023/10/31 03:44:36;;;;;;;15.85;7.22;;;9.20;99.90;;;;;;4991610;28;20061;-59
2023/10/31 03:47:04;;;;;;;13.23;6.35;;;9.20;99.90;;;;;;4984065;28;20050;-56
2023/10/31 03:49:32;;;;;;;12.73;6.47;;;9.20;99.90;;;;;;4986083;28;20057;-56
2023/10/31 03:52:00;;;;;;;9.40;5.75;;;9.10;99.90;;;;;;4994385;28;20509;-57
2023/10/31 03:54:27;;;;;;;12.60;5.95;;;9.20;99.90;;;;;;4988523;28;20126;-56
2023/10/31 03:56:55;;;;;;;11.48;5.93;;;9.10;99.90;;;;;;4992799;28;20644;-57
2023/10/31 03:59:23;;;;;;;12.32;6.90;;;9.10;99.90;;;;;;4982283;28;20061;-57
2023/10/31 04:01:51;;;;;;;9.90;6.07;;;9.10;99.90;;;;;;4973942;28;20043;-56
2023/10/31 04:04:18;;;;;;;10.30;5.30;;;9.10;99.90;;;;;;4973280;28;20042;-56
2023/10/31 04:06:46;;;;;;;11.35;5.38;;;9.10;99.90;;;;;;4990749;28;20046;-56
2023/10/31 04:09:14;;;;;;;12.18;5.75;;;9.50;99.90;;;;;;4978317;28;20058;-56
2023/10/31 04:11:43;;;;;;;11.60;5.45;;;9.00;99.90;;;;;;4975063;28;20050;-56
2023/10/31 04:14:10;;;;;;;12.35;5.22;;;9.00;99.90;;;;;;4990432;28;20153;-57
2023/10/31 04:16:45;;;;;;;7.88;5.00;;;9.00;99.90;;;;;;4994066;28;20046;-57
2023/10/31 04:19:13;;;;;;;11.90;4.95;;;9.00;99.90;;;;;;4994521;28;20525;-58
2023/10/31 04:21:41;;;;;;;8.30;4.40;;;9.00;99.90;;;;;;4993830;28;20054;-58
2023/10/31 04:24:08;;;;;;;9.35;5.35;;;9.00;99.90;;;;;;4974957;28;20043;-58
2023/10/31 04:26:40;;;;;;;11.02;5.00;;;9.00;99.90;;;;;;4973360;28;20042;-59
2023/10/31 04:29:08;;;;;;;8.32;4.93;;;9.00;99.90;;;;;;4974088;28;20514;-58
2023/10/31 04:31:35;;;;;;;10.43;5.43;;;9.00;99.90;;;;;;4974965;28;20682;-59
2023/10/31 04:34:11;;;;;;;15.60;4.85;;;9.10;99.90;;;;;;4974691;28;20061;-59
2023/10/31 04:36:38;;;;;;;7.28;4.43;;;9.10;99.90;;;;;;4988396;28;20065;-58
2023/10/31 04:39:06;;;;;;;9.75;4.88;;;9.00;99.90;;;;;;4977787;28;20250;-59
2023/10/31 04:41:33;;;;;;;9.35;4.78;;;9.10;99.90;;;;;;4972858;28;20055;-59
2023/10/31 04:44:01;;;;;;;8.25;4.45;;;9.10;99.90;;;;;;4983179;28;20058;-59
2023/10/31 04:46:29;;;;;;;8.55;4.63;;;9.10;99.90;;;;;;4994408;28;20047;-59
2023/10/31 04:48:56;;;;;;;7.00;4.90;;;9.10;99.90;;;;;;4993953;28;20058;-59
2023/10/31 04:51:24;;;;;;;9.30;4.50;;;9.10;99.90;;;;;;4991546;28;20054;-58
2023/10/31 04:53:51;;;;;;;7.03;4.70;;;9.10;99.90;;;;;;4987408;28;20039;-60
2023/10/31 04:56:19;;;;;;;6.57;4.00;;;9.00;99.90;;;;;;4992382;28;20054;-59
2023/10/31 04:58:47;;;;;;;6.20;3.83;;;9.00;99.90;;;;;;4992973;28;20053;-57
2023/10/31 05:01:16;;;;;;;8.02;3.83;;;9.00;99.90;;;;;;4993264;28;20046;-59
2023/10/31 05:03:43;;;;;;;6.35;4.20;;;9.00;99.90;;;;;;4993281;28;20050;-59
2023/10/31 05:06:11;;;;;;;5.10;3.63;;;9.00;99.90;;;;;;4992234;28;20054;-59
2023/10/31 05:08:39;;;;;;;6.55;4.03;;;8.90;99.90;;;;;;4992190;28;20049;-59
2023/10/31 05:11:07;;;;;;;6.10;4.18;;;8.90;99.90;;;;;;4993633;28;20080;-58
2023/10/31 05:13:35;;;;;;;5.85;3.17;;;8.90;99.90;;;;;;4993212;28;20498;-58
2023/10/31 05:16:03;;;;;;;9.18;3.22;;;8.90;99.90;;;;;;4993505;28;20057;-57
2023/10/31 05:18:31;;;;;;;6.85;3.50;;;8.90;99.90;;;;;;4993284;28;20043;-56
2023/10/31 05:20:58;;;;;;;5.53;3.67;;;8.90;99.90;;;;;;4991800;28;20058;-59
2023/10/31 05:23:26;;;;;;;7.63;3.53;;;8.90;99.90;;;;;;4990950;28;20042;-56
2023/10/31 05:25:53;;;;;;;6.43;3.00;;;8.90;99.90;;;;;;4993253;28;20046;-56
2023/10/31 05:28:21;;;;;;;5.38;3.40;;;9.00;99.90;;;;;;4993511;28;20050;-57
2023/10/31 05:30:49;;;;;;;4.80;3.22;;;9.00;99.90;;;;;;4992716;28;20046;-58
2023/10/31 05:33:17;;;;;;;6.80;3.72;;;8.90;99.90;;;;;;4993460;28;20051;-56
2023/10/31 05:35:45;;;;;;;5.32;3.35;;;9.00;99.90;;;;;;4989467;28;20050;-58
2023/10/31 05:38:12;;;;;;;5.60;3.20;;;9.00;99.90;;;;;;4975684;28;20042;-57
2023/10/31 05:40:40;;;;;;;5.93;3.88;;;9.00;99.90;;;;;;4991316;28;20050;-57
2023/10/31 05:43:08;;;;;;;5.97;3.50;;;9.00;99.90;;;;;;4993270;28;20053;-57
2023/10/31 05:45:35;;;;;;;6.95;3.65;;;9.00;99.90;;;;;;4992501;28;20747;-57
2023/10/31 05:48:03;;;;;;;8.35;3.70;;;9.10;99.90;;;;;;4981526;28;20038;-57
2023/10/31 05:50:31;;;;;;;6.20;3.17;;;9.00;99.90;;;;;;4970416;28;20046;-57
2023/10/31 05:52:59;;;;;;;6.45;3.60;;;9.00;99.90;;;;;;4973931;28;20041;-57
2023/10/31 05:55:26;;;;;;;5.78;3.95;;;9.10;99.90;;;;;;4986587;28;20046;-57
2023/10/31 05:57:54;;;;;;;8.13;4.20;;;9.10;99.90;;;;;;4978584;28;20042;-59
2023/10/31 06:00:21;;;;;;;8.27;4.68;;;9.10;99.90;;;;;;4971141;28;20052;-59
2023/10/31 06:02:49;;;;;;;8.52;4.75;;;9.10;99.90;;;;;;4972201;28;20118;-59
2023/10/31 06:05:17;;;;;;;7.65;4.50;;;9.10;99.90;;;;;;4986241;28;20050;-59
2023/10/31 06:07:44;;;;;;;8.95;4.55;;;9.10;99.90;;;;;;4980485;28;20043;-59
2023/10/31 06:10:12;;;;;;;8.60;4.45;;;9.10;99.90;;;;;;4979033;28;20072;-58
2023/10/31 06:12:40;;;;;;;7.57;4.80;;;9.10;99.90;;;;;;4988688;28;20046;-59
2023/10/31 06:15:08;;;;;;;9.23;5.05;;;9.10;99.90;;;;;;4988240;28;20050;-59
2023/10/31 06:17:35;;;;;;;11.27;5.38;;;9.10;99.90;;;;;;4983044;28;20049;-59
2023/10/31 06:20:03;;;;;;;9.85;5.40;;;9.10;99.90;;;;;;4984327;28;20050;-57
2023/10/31 06:22:31;;;;;;;9.85;5.78;;;9.10;99.90;;;;;;4978599;28;20154;-57
2023/10/31 06:24:59;;;;;;;10.65;5.75;;;9.10;99.90;;;;;;4972747;28;20046;-57
2023/10/31 06:27:26;;;;;;;12.23;6.25;;;9.10;99.90;;;;;;4986376;28;20402;-57
2023/10/31 06:29:55;;;;;;;11.60;6.05;;;9.10;99.90;;;;;;4975717;28;20184;-57
2023/10/31 06:32:43;;;;;;;9.57;6.57;;;9.10;99.90;;;;;;4978864;28;20049;-57
2023/10/31 06:35:10;;;;;;;11.80;6.22;;;9.20;99.90;;;;;;4971158;28;20070;-57
2023/10/31 06:37:38;;;;;;;12.38;7.45;;;9.20;99.90;;;;;;4984088;28;20043;-58
2023/10/31 06:40:06;;;;;;;12.45;6.97;;;9.20;99.90;;;;;;4984912;28;20050;-57
2023/10/31 06:42:36;;;;;;;13.60;7.43;;;9.20;99.90;;;;;;4970076;28;20547;-57
2023/10/31 06:45:04;;;;;;;17.05;7.43;;;9.20;99.90;;;;;;4978464;28;20450;-57
2023/10/31 06:47:33;;;;;;;;;;;9.20;99.90;;;;;;4978896;28;20051;-57
2023/10/31 06:50:01;;;;;;;13.77;7.32;;;9.20;99.90;;;;;;4977772;28;19921;-59
2023/10/31 06:52:29;;;;;;;14.15;6.57;;;9.20;99.90;;;;;;4973497;28;20053;-60
2023/10/31 06:54:57;;;;;;;13.65;7.32;;;9.20;99.90;;;;;;4977198;28;20050;-59
2023/10/31 06:57:26;;;;;;;15.50;6.97;;;9.20;99.90;;;;;;4987037;28;20062;-59
2023/10/31 06:59:53;;;;;;;13.45;7.43;;;9.20;99.90;;;;;;4987589;28;20134;-58
2023/10/31 07:02:21;;;;;;;11.15;6.90;;;9.20;99.90;;;;;;4985254;28;20042;-58
2023/10/31 07:04:51;;;;;;;12.80;7.15;;;9.20;99.90;;;;;;4977333;28;20049;-58
2023/10/31 07:07:19;;;;;;;14.15;7.72;;;9.20;99.90;;;;;;4973277;28;20038;-59
2023/10/31 07:09:47;;;;;;;13.02;7.20;;;9.20;99.90;;;;;;4985594;28;20348;-59
2023/10/31 07:12:15;;;;;;;14.52;6.70;;;9.20;99.90;;;;;;4976499;28;20043;-57
2023/10/31 07:14:43;;;;;;;12.43;7.57;;;9.20;99.90;;;;;;4971726;28;20055;-58
2023/10/31 07:17:11;;;;;;;14.80;7.45;;;9.30;99.90;;;;;;4984242;28;20057;-57
2023/10/31 07:19:38;;;;;;;13.60;7.25;;;9.30;99.90;;;;;;4979697;28;20039;-58
2023/10/31 07:22:06;;;;;;;17.27;7.53;;;9.30;99.90;;;;;;4974053;28;20059;-57
2023/10/31 07:24:36;;;;;;;13.82;7.00;;;9.30;99.90;;;;;;4971422;28;20061;-57
2023/10/31 07:27:04;;;;;;;13.32;6.05;;;9.30;99.90;;;;;;4983860;28;20058;-58
2023/10/31 07:29:31;;;;;;;12.88;6.63;;;9.30;99.90;;;;;;4987960;28;20406;-58
2023/10/31 07:32:00;;;;;;;14.35;7.55;;;9.30;99.90;;;;;;4988951;28;20049;-58
2023/10/31 07:34:29;;;;;;;14.32;7.43;;;9.40;99.90;;;;;;4985411;28;20050;-57
2023/10/31 07:36:57;;;;;;;15.95;8.45;;;9.40;99.90;;;;;;4977175;28;20057;-58
2023/10/31 07:39:25;;;;;;;17.45;8.50;;;9.40;99.90;;;;;;4978509;28;20479;-58
2023/10/31 07:41:53;;;;;;;20.25;8.45;;;9.40;99.90;;;;;;4972453;28;20047;-58
2023/10/31 07:44:22;;;;;;;20.15;9.25;;;9.40;99.90;;;;;;4974928;28;20057;-58
2023/10/31 07:46:50;;;;;;;23.42;10.10;;;9.40;99.90;;;;;;4971901;28;20479;-58
2023/10/31 07:49:17;;;;;;;26.58;10.07;;;9.40;99.90;;;;;;4978470;28;20380;-58
2023/10/31 07:51:47;;;;;;;21.45;9.73;;;9.40;99.90;;;;;;4972626;28;20109;-59
2023/10/31 07:54:16;;;;;;;24.15;9.52;;;9.40;99.90;;;;;;4991752;28;20050;-59
2023/10/31 07:56:44;;;;;;;25.80;9.98;;;9.40;99.90;;;;;;4991923;28;20046;-58
2023/10/31 07:59:11;;;;;;;19.70;9.40;;;9.40;99.90;;;;;;4979924;28;20395;-58
2023/10/31 08:01:39;;;;;;;22.25;9.95;;;9.40;99.90;;;;;;4969241;28;20046;-57
2023/10/31 08:04:07;;;;;;;24.17;10.23;;;9.40;99.90;;;;;;4987389;28;20034;-59
2023/10/31 08:06:34;;;;;;;21.50;8.90;;;9.50;99.90;;;;;;4986813;28;20418;-57
2023/10/31 08:09:02;;;;;;;22.08;9.73;;;9.50;99.90;;;;;;4954152;28;20399;-57
2023/10/31 08:11:35;;;;;;;28.17;11.00;;;9.50;99.90;;;;;;4981156;28;20046;-57
2023/10/31 08:14:02;;;;;;;22.80;10.60;;;9.50;99.90;;;;;;4979402;28;20042;-58
2023/10/31 08:16:31;;;;;;;28.33;10.95;;;9.50;99.90;;;;;;4982925;28;20051;-57
2023/10/31 08:18:59;;;;;;;24.33;10.35;;;9.50;99.90;;;;;;4987657;28;20057;-60
2023/10/31 08:21:33;;;;;;;22.40;10.10;;;9.60;99.90;;;;;;4988482;28;20046;-57
2023/10/31 08:24:03;;;;;;;23.52;9.02;;;9.60;99.90;;;;;;4988259;28;20046;-57
2023/10/31 08:26:31;;;;;;;;;;;9.60;99.90;;;;;;4988629;28;20057;-57
2023/10/31 08:28:59;;;;;;;24.70;9.57;;;9.60;99.90;;;;;;4987660;28;19922;-58
2023/10/31 08:31:26;;;;;;;23.67;10.45;;;9.60;99.90;;;;;;4987098;28;20050;-59
2023/10/31 08:33:54;;;;;;;21.83;10.18;;;9.70;99.90;;;;;;4980037;28;20402;-58
2023/10/31 08:36:22;;;;;;;26.20;10.48;;;9.70;99.90;;;;;;4986313;28;20394;-58
2023/10/31 08:38:49;;;;;;;24.27;11.15;;;9.70;99.90;;;;;;4986000;28;20045;-59
2023/10/31 08:41:21;;;;;;;21.98;10.80;;;9.70;99.90;;;;;;4986782;28;20054;-57
2023/10/31 08:43:48;;;;;;;22.00;9.98;;;9.70;99.90;;;;;;4980679;28;20051;-58
2023/10/31 08:46:17;;;;;;;21.38;9.73;;;9.80;99.90;;;;;;4967483;28;20054;-58
2023/10/31 08:48:45;;;;;;;25.08;9.57;;;9.80;99.90;;;;;;4972944;28;20348;-59
2023/10/31 08:51:12;;;;;;;22.52;9.23;;;9.80;99.90;;;;;;4969904;28;20521;-58
2023/10/31 08:53:40;;;;;;;22.08;8.20;;;9.90;99.90;;;;;;4987301;28;20070;-59
2023/10/31 08:56:08;;;;;;;19.20;8.48;;;9.90;99.90;;;;;;4987936;28;20053;-58
2023/10/31 08:58:35;;;;;;;18.58;9.55;;;9.90;99.90;;;;;;4987532;28;20050;-58
2023/10/31 09:01:03;;;;;;;18.52;9.20;;;9.90;99.90;;;;;;4987770;28;20055;-58
2023/10/31 09:03:31;;;;;;;24.20;9.48;;;9.90;99.90;;;;;;4986330;28;20201;-59
2023/10/31 09:05:59;;;;;;;22.67;10.50;;;9.90;99.90;;;;;;4985472;28;20042;-59
2023/10/31 09:08:27;;;;;;;25.45;10.50;;;9.90;99.90;;;;;;4986584;28;20054;-59
2023/10/31 09:10:54;;;;;;;25.63;10.57;;;9.90;99.90;;;;;;4983938;28;20046;-59
2023/10/31 09:13:28;;;;;;;27.05;11.80;;;9.90;99.90;;;;;;4985838;28;20046;-59
2023/10/31 09:15:56;;;;;;;24.17;10.88;;;10.00;99.90;;;;;;4987002;28;20050;-59
2023/10/31 09:18:24;;;;;;;25.27;11.20;;;10.00;99.90;;;;;;4982096;28;20054;-61
2023/10/31 09:20:52;;;;;;;26.60;11.43;;;10.10;99.90;;;;;;4967907;28;20066;-59
2023/10/31 09:23:20;;;;;;;28.83;11.70;;;10.20;99.90;;;;;;4986599;28;20046;-58
2023/10/31 09:25:48;;;;;;;27.48;11.18;;;10.30;99.90;;;;;;4987468;28;20042;-58
2023/10/31 09:28:15;;;;;;;26.08;11.52;;;10.30;99.90;;;;;;4974779;28;20043;-60
2023/10/31 09:30:43;;;;;;;23.00;10.95;;;10.40;99.90;;;;;;4970913;28;20058;-60
2023/10/31 09:33:13;;;;;;;21.23;10.07;;;10.40;99.90;;;;;;4987566;28;20055;-59
2023/10/31 09:35:40;;;;;;;24.38;10.40;;;10.40;99.90;;;;;;4988659;28;20046;-59
2023/10/31 09:38:08;;;;;;;24.77;11.52;;;10.40;99.90;;;;;;4989825;28;20161;-59
2023/10/31 09:40:38;;;;;;;25.48;11.50;;;10.40;99.90;;;;;;4990159;28;20046;-61
2023/10/31 09:43:06;;;;;;;;;;;10.40;99.90;;;;;;4980243;28;20054;-60
2023/10/31 09:45:33;;;;;;;27.25;12.25;;;10.40;99.90;;;;;;4989520;28;19922;-58
2023/10/31 09:48:02;;;;;;;27.30;12.00;;;10.40;99.90;;;;;;4986577;28;20062;-59
2023/10/31 09:50:30;;;;;;;26.05;11.95;;;10.40;99.90;;;;;;4987295;28;20463;-59
2023/10/31 09:52:59;;;;;;;31.95;12.40;;;10.30;99.90;;;;;;4989153;28;20054;-58
2023/10/31 09:55:27;;;;;;;24.37;11.33;;;10.40;99.90;;;;;;4971379;28;20399;-60
2023/10/31 09:57:55;;;;;;;23.52;11.80;;;10.40;99.90;;;;;;4986187;28;20806;-60
2023/10/31 10:00:23;;;;;;;24.77;12.02;;;10.40;99.90;;;;;;4989033;28;20043;-59
2023/10/31 10:02:51;;;;;;;22.08;11.60;;;10.40;99.90;;;;;;4989046;28;20077;-59
2023/10/31 10:05:20;;;;;;;26.95;11.93;;;10.40;99.90;;;;;;4987763;28;20049;-60
2023/10/31 10:07:50;;;;;;;21.27;10.60;;;10.50;99.90;;;;;;4983719;28;20053;-58
2023/10/31 10:10:18;;;;;;;25.17;12.00;;;10.50;99.90;;;;;;4987908;28;20053;-58
2023/10/31 10:12:46;;;;;;;24.38;11.02;;;10.50;99.90;;;;;;4975535;28;20053;-59
2023/10/31 10:15:13;;;;;;;23.55;10.80;;;10.60;99.90;;;;;;4987984;28;20046;-58
2023/10/31 10:17:50;;;;;;;27.42;11.95;;;10.60;99.90;;;;;;4989071;28;20050;-59
2023/10/31 10:20:18;;;;;;;25.23;11.30;;;10.60;99.90;;;;;;4976010;28;20039;-60
2023/10/31 10:22:46;;;;;;;21.73;10.40;;;10.70;99.90;;;;;;4988827;28;20061;-60
2023/10/31 10:25:17;;;;;;;23.83;10.93;;;10.70;99.90;;;;;;4989457;28;20038;-59
2023/10/31 10:27:45;;;;;;;24.45;11.15;;;10.70;99.90;;;;;;4988201;28;20433;-60
2023/10/31 10:30:14;;;;;;;21.77;10.63;;;10.80;99.90;;;;;;4987697;28;20529;-59
2023/10/31 10:32:42;;;;;;;21.15;9.55;;;10.80;99.90;;;;;;4988920;28;20521;-59
2023/10/31 10:35:10;;;;;;;23.27;10.50;;;10.80;99.90;;;;;;4988353;28;20051;-58
2023/10/31 10:37:39;;;;;;;20.60;9.75;;;10.80;99.90;;;;;;4986651;28;20050;-58
2023/10/31 10:40:08;;;;;;;26.02;10.75;;;10.80;99.90;;;;;;4967018;28;20050;-59
2023/10/31 10:42:47;;;;;;;21.23;10.25;;;10.90;99.90;;;;;;4974153;28;20205;-58
2023/10/31 10:45:17;;;;;;;24.55;10.23;;;10.90;99.90;;;;;;4985776;28;20054;-58
2023/10/31 10:47:47;;;;;;;20.20;9.65;;;10.90;99.90;;;;;;4977337;28;20046;-58
2023/10/31 10:50:18;;;;;;;22.73;10.25;;;10.80;99.90;;;;;;4981392;28;20050;-57
2023/10/31 10:52:52;;;;;;;25.35;10.70;;;10.90;99.90;;;;;;4983489;28;20038;-57
2023/10/31 10:55:24;;;;;;;22.35;10.15;;;10.90;99.90;;;;;;4984030;28;20050;-59
2023/10/31 10:58:03;;;;;;;22.90;10.48;;;10.80;99.90;;;;;;4975066;28;20065;-58
2023/10/31 11:00:31;;;;;;;26.35;10.25;;;10.80;99.90;;;;;;4988078;28;20042;-58
2023/10/31 11:02:59;;;;;;;30.95;10.98;;;10.80;99.90;;;;;;4982428;28;20061;-58
2023/10/31 11:05:27;;;;;;;23.10;10.73;;;10.80;99.90;;;;;;4983712;28;20050;-59
2023/10/31 11:07:57;;;;;;;26.15;10.45;;;10.90;99.90;;;;;;4985552;28;20050;-58
2023/10/31 11:10:29;;;;;;;21.77;10.32;;;10.80;99.90;;;;;;4975651;28;20491;-59
2023/10/31 11:12:56;;;;;;;22.38;10.85;;;10.90;99.90;;;;;;4978282;28;20035;-59
2023/10/31 11:15:25;;;;;;;23.90;11.43;;;10.90;99.90;;;;;;4977570;28;20042;-59
2023/10/31 11:17:56;;;;;;;29.65;11.20;;;11.00;99.90;;;;;;4986701;28;20073;-59
2023/10/31 11:20:23;;;;;;;;;;;11.00;99.90;;;;;;4987204;28;20055;-58
2023/10/31 11:22:57;;;;;;;29.10;11.82;;;11.00;99.90;;;;;;4988058;28;19928;-59
2023/10/31 11:25:25;;;;;;;29.77;12.15;;;11.00;99.90;;;;;;4988547;28;20054;-59
2023/10/31 11:28:17;;;;;;;30.15;12.52;;;11.00;99.90;;;;;;4984840;28;20506;-60
2023/10/31 11:30:48;;;;;;;29.48;12.27;;;11.00;99.90;;;;;;4984912;28;20506;-60
2023/10/31 11:33:19;;;;;;;28.75;13.27;;;11.10;99.90;;;;;;4966904;28;20038;-58
2023/10/31 11:35:51;;;;;;;32.53;12.82;;;11.10;99.90;;;;;;4983002;28;20049;-58
2023/10/31 11:38:32;;;;;;;29.52;12.68;;;11.10;99.90;;;;;;4983869;28;20054;-58
2023/10/31 11:41:02;;;;;;;31.48;12.82;;;11.10;99.90;;;;;;4978694;28;20042;-60
2023/10/31 11:43:39;;;;;;;23.80;11.93;;;11.10;99.90;;;;;;4974274;28;20057;-59
2023/10/31 11:46:26;;;;;;;25.80;12.40;;;11.10;99.90;;;;;;4966864;28;20051;-60
2023/10/31 11:48:56;;;;;;;20.40;10.02;;;11.20;99.90;;;;;;4984319;28;20046;-60
2023/10/31 11:51:25;;;;;;;22.13;10.40;;;11.20;99.90;;;;;;4970428;28;20423;-59
2023/10/31 11:53:53;;;;;;;22.73;10.55;;;11.20;99.90;;;;;;4970831;28;20051;-59
2023/10/31 11:56:21;;;;;;;21.88;10.32;;;11.20;99.90;;;;;;4968769;28;20051;-58
2023/10/31 11:59:01;;;;;;;22.52;10.43;;;11.20;99.90;;;;;;4969024;28;20073;-58
2023/10/31 12:01:29;;;;;;;;;;;11.20;99.90;;;;;;4972886;28;20123;-58
2023/10/31 12:03:57;;;;;;;19.45;9.30;;;11.20;99.90;;;;;;4987963;28;19933;-58
2023/10/31 12:06:26;;;;;;;24.13;9.40;;;11.30;99.90;;;;;;4988286;28;20062;-58
2023/10/31 12:08:59;;;;;;;20.52;10.95;;;11.40;99.90;;;;;;4987626;28;20057;-58
2023/10/31 12:11:26;;;;;;;17.13;8.48;;;11.40;99.90;;;;;;4986538;28;20055;-58
2023/10/31 12:14:01;;;;;;;17.90;7.50;;;11.50;99.90;;;;;;4986258;28;20422;-58
2023/10/31 12:16:33;;;;;;;19.92;8.52;;;11.50;99.90;;;;;;4987719;28;20046;-57
2023/10/31 12:19:03;;;;;;;15.23;7.75;;;11.60;99.90;;;;;;4986612;28;20062;-58
2023/10/31 12:21:49;;;;;;;16.48;8.00;;;11.60;99.90;;;;;;4973760;28;20205;-58
2023/10/31 12:24:18;;;;;;;22.95;7.50;;;11.60;99.90;;;;;;4980232;28;20498;-58
2023/10/31 12:26:47;;;;;;;15.55;7.68;;;11.60;99.90;;;;;;4972662;28;20046;-59
2023/10/31 12:29:19;;;;;;;17.15;8.77;;;11.70;99.90;;;;;;4971734;28;20047;-58
2023/10/31 12:31:57;;;;;;;20.08;8.18;;;11.70;99.90;;;;;;4975457;28;20038;-59
2023/10/31 12:34:25;;;;;;;15.18;7.93;;;11.80;99.90;;;;;;4991092;28;20061;-58
2023/10/31 12:36:54;;;;;;;14.15;7.97;;;11.90;99.90;;;;;;4991089;28;20501;-58
2023/10/31 12:39:25;;;;;;;17.55;8.38;;;12.10;99.90;;;;;;4990588;28;20054;-59
2023/10/31 12:41:54;;;;;;;19.02;8.57;;;12.20;99.90;;;;;;4990855;28;20058;-60
2023/10/31 12:44:27;;;;;;;15.18;7.43;;;12.40;99.90;;;;;;4990189;28;20059;-60
2023/10/31 12:46:56;;;;;;;15.75;7.45;;;12.50;99.90;;;;;;4972817;28;20035;-61
2023/10/31 12:49:25;;;;;;;17.23;8.60;;;12.60;99.90;;;;;;4987865;28;20057;-61
2023/10/31 12:52:04;;;;;;;17.17;8.43;;;12.60;99.90;;;;;;4990756;28;20054;-61